createdAt,value
2022-12-18T00:04:35.408Z,92668.16
2022-12-18T00:07:23.081Z,92665.16
2022-12-18T00:10:10.647Z,92670.50
2022-12-18T00:12:58.229Z,92671.25
2022-12-18T00:15:45.868Z,92661.34
2022-12-18T00:18:33.497Z,92673.03
2022-12-18T00:21:21.066Z,92674.09
2022-12-18T00:24:08.777Z,92674.78
2022-12-18T00:26:56.369Z,92671.59
2022-12-18T00:29:43.970Z,92662.56
2022-12-18T00:32:31.550Z,92668.28
2022-12-18T00:35:19.246Z,92668.59
2022-12-18T00:38:06.825Z,92679.63
2022-12-18T00:40:54.421Z,92676.31
2022-12-18T00:43:42.248Z,92673.16
2022-12-18T00:46:29.998Z,92670.47
2022-12-18T00:49:17.551Z,92671.13
2022-12-18T00:52:07.142Z,92668.63
2022-12-18T00:54:54.702Z,92666.25
2022-12-18T00:57:42.426Z,92677.84
2022-12-18T01:00:30.049Z,92685.16
2022-12-18T01:03:17.682Z,92680.13
2022-12-18T01:06:05.267Z,92684.34
2022-12-18T01:08:52.868Z,92680.91
2022-12-18T01:11:40.428Z,92681.56
2022-12-18T01:14:28.133Z,92692.41
2022-12-18T01:17:15.699Z,92680.09
2022-12-18T01:20:03.334Z,92673.00
2022-12-18T01:22:50.891Z,92684.22
2022-12-18T01:25:38.470Z,92694.56
2022-12-18T01:28:26.065Z,92702.44
2022-12-18T01:31:13.671Z,92709.00
2022-12-18T01:34:01.284Z,92709.75
2022-12-18T01:36:48.910Z,92704.91
2022-12-18T01:39:36.494Z,92709.66
2022-12-18T01:42:24.095Z,92721.84
2022-12-18T01:45:11.683Z,92721.53
2022-12-18T01:47:59.241Z,92716.09
2022-12-18T01:50:48.842Z,92720.75
2022-12-18T01:53:36.728Z,92728.47
2022-12-18T01:56:24.596Z,92721.50
2022-12-18T01:59:12.165Z,92727.19
2022-12-18T02:01:59.973Z,92739.44
2022-12-18T02:04:49.852Z,92736.63
2022-12-18T02:07:37.474Z,92738.50
2022-12-18T02:10:25.058Z,92745.47
2022-12-18T02:13:12.649Z,92747.28
2022-12-18T02:16:00.226Z,92756.22
2022-12-18T02:18:47.812Z,92755.22
2022-12-18T02:21:35.402Z,92758.47
2022-12-18T02:24:23.012Z,92757.13
2022-12-18T02:27:10.614Z,92757.19
2022-12-18T02:29:59.108Z,92754.88
2022-12-18T02:32:46.909Z,92752.72
2022-12-18T02:35:34.497Z,92762.38
2022-12-18T02:38:22.083Z,92763.03
2022-12-18T02:41:09.665Z,92766.50
2022-12-18T02:43:57.259Z,92759.13
2022-12-18T02:46:45.064Z,92747.63
2022-12-18T02:49:32.650Z,92755.13
2022-12-18T02:52:20.207Z,92752.31
2022-12-18T02:55:07.796Z,92757.41
2022-12-18T02:57:55.350Z,92759.19
2022-12-18T03:00:42.971Z,92757.69
2022-12-18T03:03:30.654Z,92759.34
2022-12-18T03:06:18.348Z,92772.19
2022-12-18T03:09:05.940Z,92775.75
2022-12-18T03:11:53.521Z,92769.13
2022-12-18T03:14:41.118Z,92774.66
2022-12-18T03:17:28.698Z,92771.19
2022-12-18T03:20:16.266Z,92771.03
2022-12-18T03:23:03.836Z,92771.94
2022-12-18T03:25:51.411Z,92764.63
2022-12-18T03:28:38.975Z,92753.78
2022-12-18T03:31:26.635Z,92769.28
2022-12-18T03:34:14.209Z,92771.84
2022-12-18T03:37:01.862Z,92774.75
2022-12-18T03:39:49.423Z,92769.00
2022-12-18T03:42:36.998Z,92771.50
2022-12-18T03:45:24.577Z,92767.56
2022-12-18T03:48:12.173Z,92770.19
2022-12-18T03:50:59.751Z,92771.66
2022-12-18T03:53:47.311Z,92772.78
2022-12-18T03:56:34.901Z,92770.56
2022-12-18T03:59:22.525Z,92775.84
2022-12-18T04:02:10.223Z,92774.72
2022-12-18T04:04:57.898Z,92764.03
2022-12-18T04:07:45.491Z,92771.09
2022-12-18T04:10:33.063Z,92774.75
2022-12-18T04:13:40.963Z,92774.22
2022-12-18T04:16:44.195Z,92767.13
2022-12-18T04:19:31.771Z,92777.59
2022-12-18T04:22:19.342Z,92774.56
2022-12-18T04:25:08.117Z,92779.06
2022-12-18T04:27:55.717Z,92790.84
2022-12-18T04:30:43.362Z,92785.03
2022-12-18T04:33:31.002Z,92787.34
2022-12-18T04:36:18.602Z,92787.94
2022-12-18T04:39:06.166Z,92794.22
2022-12-18T04:41:53.750Z,92794.94
2022-12-18T04:44:41.322Z,92793.81
2022-12-18T04:47:28.914Z,92797.59
2022-12-18T04:50:16.497Z,92794.84
2022-12-18T04:53:04.053Z,92795.59
2022-12-18T04:55:51.660Z,92797.84
2022-12-18T04:58:39.223Z,92803.00
2022-12-18T05:01:32.582Z,92805.41
2022-12-18T05:04:22.042Z,92800.66
2022-12-18T05:07:09.630Z,92804.88
2022-12-18T05:09:57.210Z,92806.75
2022-12-18T05:12:44.786Z,92806.09
2022-12-18T05:15:32.366Z,92812.69
2022-12-18T05:18:19.940Z,92819.53
2022-12-18T05:21:07.548Z,92812.81
2022-12-18T05:23:55.117Z,92816.09
2022-12-18T05:26:42.730Z,92815.69
2022-12-18T05:29:30.297Z,92825.81
2022-12-18T05:32:17.869Z,92821.28
2022-12-18T05:35:05.457Z,92826.16
2022-12-18T05:37:53.148Z,92827.16
2022-12-18T05:40:42.730Z,92823.19
2022-12-18T05:43:30.410Z,92817.47
2022-12-18T05:46:20.044Z,92822.72
2022-12-18T05:49:07.701Z,92822.97
2022-12-18T05:51:55.290Z,92830.44
2022-12-18T05:54:42.896Z,92831.13
2022-12-18T05:57:30.493Z,92829.38
2022-12-18T06:00:18.060Z,92827.84
2022-12-18T06:03:05.737Z,92834.69
2022-12-18T06:05:53.398Z,92837.06
2022-12-18T06:08:46.039Z,92832.75
2022-12-18T06:11:34.147Z,92828.50
2022-12-18T06:14:21.821Z,92827.69
2022-12-18T06:17:09.413Z,92834.75
2022-12-18T06:19:57.029Z,92839.03
2022-12-18T06:22:44.613Z,92848.16
2022-12-18T06:25:32.192Z,92852.28
2022-12-18T06:28:19.773Z,92853.69
2022-12-18T06:31:08.436Z,92868.84
2022-12-18T06:33:56.058Z,92874.94
2022-12-18T06:36:43.649Z,92882.69
2022-12-18T06:39:31.242Z,92872.59
2022-12-18T06:42:18.930Z,92893.38
2022-12-18T06:45:06.538Z,92885.38
2022-12-18T06:47:54.246Z,92891.63
2022-12-18T06:50:41.837Z,92884.59
2022-12-18T06:53:29.503Z,92882.69
2022-12-18T06:56:17.080Z,92885.41
2022-12-18T06:59:04.686Z,92888.22
2022-12-18T07:01:52.432Z,92894.72
2022-12-18T07:04:40.160Z,92899.56
2022-12-18T07:07:27.736Z,92910.09
2022-12-18T07:10:15.314Z,92906.19
2022-12-18T07:13:02.866Z,92904.69
2022-12-18T07:15:50.493Z,92908.84
2022-12-18T07:18:38.085Z,92914.13
2022-12-18T07:21:25.702Z,92919.13
2022-12-18T07:24:13.270Z,92916.03
2022-12-18T07:27:00.884Z,92919.22
2022-12-18T07:29:48.477Z,92915.81
2022-12-18T07:32:36.065Z,92921.97
2022-12-18T07:35:25.310Z,92923.34
2022-12-18T07:38:13.105Z,92925.69
2022-12-18T07:41:00.735Z,92928.22
2022-12-18T07:43:48.311Z,92918.34
2022-12-18T07:46:37.895Z,92924.22
2022-12-18T07:49:25.460Z,92932.25
2022-12-18T07:52:13.046Z,92928.94
2022-12-18T07:55:00.625Z,92937.34
2022-12-18T07:57:51.269Z,92938.38
2022-12-18T08:00:40.184Z,92937.22
2022-12-18T08:03:27.799Z,92941.66
2022-12-18T08:06:15.405Z,92939.13
2022-12-18T08:09:03.030Z,92942.28
2022-12-18T08:11:50.646Z,92944.78
2022-12-18T08:14:38.229Z,92942.31
2022-12-18T08:17:25.811Z,92937.50
2022-12-18T08:20:13.437Z,92937.00
2022-12-18T08:23:01.039Z,92939.16
2022-12-18T08:25:48.663Z,92946.25
2022-12-18T08:28:36.273Z,92939.94
2022-12-18T08:31:23.916Z,92934.72
2022-12-18T08:34:12.159Z,92935.41
2022-12-18T08:36:59.730Z,92936.44
2022-12-18T08:39:47.336Z,92931.06
2022-12-18T08:42:34.914Z,92925.66
2022-12-18T08:45:22.508Z,92933.59
2022-12-18T08:48:10.205Z,92930.94
2022-12-18T08:50:57.788Z,92934.69
2022-12-18T08:53:45.396Z,92934.41
2022-12-18T08:56:32.949Z,92935.41
2022-12-18T08:59:20.790Z,92933.25
2022-12-18T09:02:08.537Z,92937.34
2022-12-18T09:04:57.714Z,92947.44
2022-12-18T09:07:45.495Z,92955.13
2022-12-18T09:10:35.644Z,92954.69
2022-12-18T09:13:26.407Z,92958.81
2022-12-18T09:16:13.993Z,92964.44
2022-12-18T09:19:01.578Z,92951.66
2022-12-18T09:21:49.185Z,92960.91
2022-12-18T09:24:36.743Z,92955.44
2022-12-18T09:27:24.315Z,92960.81
2022-12-18T09:30:11.893Z,92949.25
2022-12-18T09:32:59.698Z,92952.59
2022-12-18T09:35:47.943Z,92955.00
2022-12-18T09:38:35.734Z,92955.31
2022-12-18T09:41:23.306Z,92951.06
2022-12-18T09:44:10.922Z,92954.16
2022-12-18T09:46:58.505Z,92957.28
2022-12-18T09:49:46.182Z,92966.97
2022-12-18T09:52:35.759Z,92957.31
2022-12-18T09:55:23.467Z,92961.06
2022-12-18T09:58:11.036Z,92958.72
2022-12-18T10:00:58.621Z,92951.94
2022-12-18T10:03:46.228Z,92943.38
2022-12-18T10:06:33.808Z,92948.97
2022-12-18T10:09:21.361Z,92945.47
2022-12-18T10:11:56.654Z,92951.41
2022-12-18T10:14:24.076Z,92957.41
2022-12-18T10:43:19.875Z,92939.38
2022-12-18T10:46:06.027Z,92941.63
2022-12-18T10:48:53.661Z,92940.84
2022-12-18T10:51:41.238Z,92937.91
2022-12-18T10:54:28.812Z,92940.06
2022-12-18T10:57:16.391Z,92934.22
2022-12-18T11:00:03.957Z,92931.09
2022-12-18T11:02:51.668Z,92936.78
2022-12-18T11:05:39.374Z,92947.69
2022-12-18T11:08:26.982Z,92942.53
2022-12-18T11:11:14.552Z,92938.59
2022-12-18T11:14:02.154Z,92940.28
2022-12-18T11:17:23.766Z,92939.50
2022-12-18T11:19:57.255Z,92941.78
2022-12-18T11:22:44.850Z,92940.41
2022-12-18T11:25:34.492Z,92951.56
2022-12-18T11:28:23.161Z,92962.34
2022-12-18T11:31:10.886Z,92954.75
2022-12-18T11:34:27.448Z,92952.44
2022-12-18T11:37:06.035Z,92948.47
2022-12-18T11:39:53.626Z,92947.56
2022-12-18T11:42:41.189Z,92943.13
2022-12-18T11:45:28.762Z,92930.28
2022-12-18T11:48:16.399Z,92924.47
2022-12-18T11:51:03.960Z,92921.91
2022-12-18T11:53:51.561Z,92914.19
2022-12-18T11:56:39.185Z,92907.91
2022-12-18T11:59:26.757Z,92899.91
2022-12-18T12:02:14.387Z,92908.97
2022-12-18T12:05:02.082Z,92901.81
2022-12-18T12:07:49.685Z,92904.41
2022-12-18T12:10:37.249Z,92899.22
2022-12-18T12:13:24.854Z,92893.50
2022-12-18T12:16:12.455Z,92897.41
2022-12-18T12:19:00.344Z,92903.88
2022-12-18T12:21:47.920Z,92887.31
2022-12-18T12:24:35.519Z,92895.06
2022-12-18T12:27:23.130Z,92887.59
2022-12-18T12:30:10.723Z,92884.59
2022-12-18T12:32:58.284Z,92876.22
2022-12-18T12:35:45.871Z,92873.44
2022-12-18T12:38:33.471Z,92878.50
2022-12-18T12:41:21.055Z,92877.31
2022-12-18T12:44:08.599Z,92876.03
2022-12-18T12:46:56.544Z,92878.28
2022-12-18T12:49:44.109Z,92877.31
2022-12-18T12:52:33.854Z,92877.66
2022-12-18T12:55:21.482Z,92873.53
2022-12-18T12:58:10.150Z,92875.44
2022-12-18T13:00:59.088Z,92873.97
2022-12-18T13:03:47.467Z,92886.41
2022-12-18T13:06:36.905Z,92884.94
2022-12-18T13:09:26.867Z,92875.34
2022-12-18T13:12:14.443Z,92867.06
2022-12-18T13:15:02.093Z,92853.72
2022-12-18T13:17:49.688Z,92855.50
2022-12-18T13:20:37.279Z,92857.47
2022-12-18T13:23:24.878Z,92847.91
2022-12-18T13:26:12.462Z,92841.41
2022-12-18T13:29:00.085Z,92840.66
2022-12-18T13:31:48.057Z,92837.84
2022-12-18T13:34:36.297Z,92837.06
2022-12-18T13:37:24.279Z,92834.97
2022-12-18T13:40:11.892Z,92824.53
2022-12-18T13:42:59.495Z,92835.38
2022-12-18T13:45:47.562Z,92833.56
2022-12-18T13:48:35.375Z,92829.69
2022-12-18T13:51:23.077Z,92826.66
2022-12-18T13:54:10.655Z,92837.25
2022-12-18T13:56:58.260Z,92844.00
2022-12-18T13:59:45.959Z,92844.44
2022-12-18T14:02:34.324Z,92851.63
2022-12-18T14:05:22.015Z,92854.41
2022-12-18T14:08:09.632Z,92847.63
2022-12-18T14:10:57.226Z,92843.66
2022-12-18T14:13:44.825Z,92841.88
2022-12-18T14:16:32.522Z,92846.63
2022-12-18T14:19:20.540Z,92844.56
2022-12-18T14:22:08.122Z,92846.78
2022-12-18T14:24:55.736Z,92845.81
2022-12-18T14:27:43.340Z,92851.28
2022-12-18T14:30:30.970Z,92845.22
2022-12-18T14:33:18.563Z,92843.22
2022-12-18T14:36:06.190Z,92856.38
2022-12-18T14:38:53.785Z,92863.22
2022-12-18T14:41:41.384Z,92863.22
2022-12-18T14:44:39.114Z,92871.84
2022-12-18T14:47:36.544Z,92860.28
2022-12-18T14:50:24.123Z,92867.19
2022-12-18T14:53:11.709Z,92871.47
2022-12-18T14:55:59.326Z,92858.97
2022-12-18T14:58:47.170Z,92861.53
2022-12-18T15:01:34.832Z,92868.81
2022-12-18T15:04:22.519Z,92855.16
2022-12-18T15:07:10.100Z,92859.63
2022-12-18T15:09:57.888Z,92853.38
2022-12-18T15:12:45.467Z,92856.78
2022-12-18T15:15:33.067Z,92854.44
2022-12-18T15:18:20.641Z,92860.47
2022-12-18T15:21:08.247Z,92862.78
2022-12-18T15:23:55.814Z,92874.66
2022-12-18T15:26:43.410Z,92874.63
2022-12-18T15:29:30.994Z,92865.97
2022-12-18T15:32:18.589Z,92871.13
2022-12-18T15:35:06.169Z,92861.81
2022-12-18T15:37:53.759Z,92865.66
2022-12-18T15:40:41.326Z,92869.97
2022-12-18T15:43:29.002Z,92865.53
2022-12-18T15:46:16.616Z,92866.13
2022-12-18T15:49:04.253Z,92862.75
2022-12-18T15:51:51.844Z,92854.28
2022-12-18T15:54:39.478Z,92864.75
2022-12-18T15:57:27.038Z,92862.56
2022-12-18T16:00:14.740Z,92859.50
2022-12-18T16:03:02.494Z,92853.22
2022-12-18T16:05:50.176Z,92859.00
2022-12-18T16:08:37.776Z,92854.00
2022-12-18T16:11:27.086Z,92863.50
2022-12-18T16:14:14.688Z,92855.69
2022-12-18T16:17:02.269Z,92858.44
2022-12-18T16:19:49.848Z,92857.69
2022-12-18T16:22:37.434Z,92858.59
2022-12-18T16:25:25.007Z,92856.59
2022-12-18T16:28:12.609Z,92851.34
2022-12-18T16:31:00.228Z,92851.69
2022-12-18T16:33:47.800Z,92852.88
2022-12-18T16:36:35.387Z,92861.91
2022-12-18T16:39:22.985Z,92867.75
2022-12-18T16:42:11.812Z,92873.03
2022-12-18T16:44:59.379Z,92873.81
2022-12-18T16:47:46.981Z,92874.25
2022-12-18T16:50:34.553Z,92879.50
2022-12-18T16:53:22.117Z,92886.53
2022-12-18T16:56:09.695Z,92879.94
2022-12-18T16:58:57.294Z,92870.28
2022-12-18T17:01:44.974Z,92866.88
2022-12-18T17:04:32.682Z,92873.91
2022-12-18T17:07:20.293Z,92862.41
2022-12-18T17:10:07.875Z,92863.38
2022-12-18T17:12:55.746Z,92865.50
2022-12-18T17:15:43.387Z,92865.66
2022-12-18T17:18:31.002Z,92864.13
2022-12-18T17:21:18.587Z,92852.16
2022-12-18T17:24:06.177Z,92846.41
2022-12-18T17:26:53.774Z,92836.47
2022-12-18T17:29:47.159Z,92844.75
2022-12-18T17:32:36.202Z,92843.25
2022-12-18T17:35:23.811Z,92847.41
2022-12-18T17:38:11.397Z,92869.75
2022-12-18T17:40:58.963Z,92893.75
2022-12-18T17:43:46.539Z,92908.72
2022-12-18T17:46:34.204Z,92905.25
2022-12-18T17:49:21.877Z,92901.69
2022-12-18T17:52:09.491Z,92894.66
2022-12-18T17:54:57.098Z,92895.19
2022-12-18T17:57:44.693Z,92876.56
2022-12-18T18:00:32.277Z,92875.00
2022-12-18T18:03:20.063Z,92864.25
2022-12-18T18:06:07.786Z,92854.63
2022-12-18T18:08:56.441Z,92857.22
2022-12-18T18:11:44.129Z,92869.31
2022-12-18T18:14:31.708Z,92880.22
2022-12-18T18:17:19.289Z,92873.13
2022-12-18T18:20:06.878Z,92865.72
2022-12-18T18:22:54.519Z,92876.06
2022-12-18T18:25:42.107Z,92873.25
2022-12-18T18:28:29.763Z,92875.88
2022-12-18T18:31:17.502Z,92881.78
2022-12-18T18:34:05.286Z,92877.00
2022-12-18T18:36:52.877Z,92881.16
2022-12-18T18:39:40.483Z,92887.13
2022-12-18T18:42:28.071Z,92883.66
2022-12-18T18:45:15.657Z,92893.47
2022-12-18T18:48:03.240Z,92872.59
2022-12-18T18:50:50.822Z,92879.81
2022-12-18T18:53:40.685Z,92871.66
2022-12-18T18:59:36.075Z,92869.81
2022-12-18T19:02:23.756Z,92869.50
2022-12-18T19:05:11.438Z,92874.72
2022-12-18T19:07:59.026Z,92886.38
2022-12-18T19:10:46.646Z,92893.91
2022-12-18T19:13:34.270Z,92902.56
2022-12-18T19:16:21.965Z,92882.09
2022-12-18T19:19:11.698Z,92885.63
2022-12-18T19:21:59.437Z,92871.91
2022-12-18T19:24:47.018Z,92884.31
2022-12-18T19:27:34.656Z,92880.47
2022-12-18T19:30:22.225Z,92881.38
2022-12-18T19:33:34.525Z,92887.75
2022-12-18T19:36:17.453Z,92901.56
2022-12-18T19:39:05.252Z,92890.41
2022-12-18T19:41:53.001Z,92883.28
2022-12-18T19:44:41.842Z,92890.03
2022-12-18T19:47:29.390Z,92883.56
2022-12-18T19:50:16.991Z,92884.03
2022-12-18T19:53:04.642Z,92879.03
2022-12-18T19:55:54.540Z,92879.19
2022-12-18T19:58:42.491Z,92879.34
2022-12-18T20:01:30.420Z,92882.41
2022-12-18T20:04:18.193Z,92888.84
2022-12-18T20:07:05.795Z,92887.47
2022-12-18T20:10:02.613Z,92883.66
2022-12-18T20:12:53.065Z,92883.50
2022-12-18T20:15:45.249Z,92881.66
2022-12-18T20:18:33.183Z,92886.25
2022-12-18T20:21:20.893Z,92881.50
2022-12-18T20:24:08.497Z,92877.94
2022-12-18T20:26:56.146Z,92883.66
2022-12-18T20:29:43.737Z,92873.03
2022-12-18T20:32:36.784Z,92883.63
2022-12-18T20:35:24.754Z,92869.97
2022-12-18T20:38:13.046Z,92844.63
2022-12-18T20:41:01.014Z,92851.84
2022-12-18T20:43:48.574Z,92858.44
2022-12-18T20:46:36.147Z,92854.47
2022-12-18T20:49:23.696Z,92863.19
2022-12-18T20:52:11.288Z,92859.84
2022-12-18T20:54:58.861Z,92858.91
2022-12-18T20:57:48.213Z,92861.03
2022-12-18T21:00:35.777Z,92848.31
2022-12-18T21:03:23.392Z,92846.94
2022-12-18T21:06:11.007Z,92852.00
2022-12-18T21:08:58.554Z,92848.28
2022-12-18T21:11:46.124Z,92850.47
2022-12-18T21:14:35.698Z,92849.38
2022-12-18T21:17:23.270Z,92848.63
2022-12-18T21:20:10.938Z,92852.28
2022-12-18T21:23:13.200Z,92846.91
2022-12-18T21:26:04.374Z,92832.91
2022-12-18T21:28:51.925Z,92844.41
2022-12-18T21:31:39.834Z,92844.16
2022-12-18T21:34:27.390Z,92841.34
2022-12-18T21:37:14.942Z,92831.38
2022-12-18T21:40:02.505Z,92845.25
2022-12-18T21:42:50.077Z,92846.00
2022-12-18T21:45:37.655Z,92847.72
2022-12-18T21:48:25.210Z,92844.94
2022-12-18T21:51:12.763Z,92844.78
2022-12-18T21:54:00.309Z,92834.81
2022-12-18T21:56:49.866Z,92828.22
2022-12-18T21:59:37.414Z,92836.97
2022-12-18T22:02:25.216Z,92847.88
2022-12-18T22:05:12.910Z,92842.47
2022-12-18T22:08:00.983Z,92834.50
2022-12-18T22:10:48.548Z,92837.72
2022-12-18T22:13:36.138Z,92839.72
2022-12-18T22:16:23.730Z,92819.63
2022-12-18T22:19:11.337Z,92836.03
2022-12-18T22:21:58.961Z,92850.91
2022-12-18T22:24:46.535Z,92864.16
2022-12-18T22:27:34.074Z,92869.22
2022-12-18T22:30:21.654Z,92867.47
2022-12-18T22:33:09.258Z,92871.56
2022-12-18T22:35:56.861Z,92864.47
2022-12-18T22:38:44.425Z,92876.19
2022-12-18T22:41:32.003Z,92876.03
2022-12-18T22:44:20.372Z,92865.84
2022-12-18T22:47:07.977Z,92863.66
2022-12-18T22:49:55.597Z,92872.56
2022-12-18T22:52:43.181Z,92864.91
2022-12-18T22:55:32.757Z,92866.44
2022-12-18T22:58:20.337Z,92872.09
2022-12-18T23:01:07.972Z,92870.50
2022-12-18T23:03:55.634Z,92866.44
2022-12-18T23:06:43.265Z,92861.38
2022-12-18T23:09:30.865Z,92848.56
2022-12-18T23:12:18.427Z,92857.47
2022-12-18T23:15:06.083Z,92859.66
2022-12-18T23:17:53.672Z,92862.28
2022-12-18T23:20:41.256Z,92865.50
2022-12-18T23:23:29.203Z,92855.41
2022-12-18T23:26:16.766Z,92862.41
2022-12-18T23:29:04.346Z,92871.03
2022-12-18T23:31:51.947Z,92861.66
2022-12-18T23:34:39.590Z,92858.75
2022-12-18T23:37:57.121Z,92855.53
2022-12-18T23:40:34.655Z,92850.63
2022-12-18T23:43:22.297Z,92847.09
2022-12-18T23:46:09.936Z,92846.03
2022-12-18T23:48:57.535Z,92859.00
2022-12-18T23:51:45.163Z,92852.59
2022-12-18T23:54:33.740Z,92850.53
2022-12-18T23:57:21.403Z,92841.38
